Stuart Island Airpark

7WA5 · 华盛顿州, 美国

2023年1月31日 16:002023年1月31日 21:00有效
时间
星期二
16:00
星期二
17:00
星期二
18:00
星期二
19:00
星期二
20:00
代码
VFR
VFR
VFR
VFR
VFR
天气
碎云
碎云
碎云
碎云
碎云
能见度
6 mi+
6 mi+
6 mi+
6 mi+
6 mi+
天花板
4.000 ft
4.000 ft
4.000 ft
4.000 ft
4.000 ft
110°
110°
110°
110°
110°
110°
110°
110°
110°
110°
速度
10 kt
10 kt
10 kt
10 kt
10 kt
阵风
温度/星期日

原版的

TAF CYWH 312356Z 0100/0105 11010KT P6SM BKN040 OVC080 RMK NXT FCST BY 011500Z

TAF Stuart Island Airpark

Stuart Island Airpark是,美国中的小机场。 该机场有一条跑道: 9/27. 该领域的国际民航组织标志是7WA5 它的国际航空运输协会代码是SSW.

这份报告是针对2023年1月31日 15:56, 当地时间在Victoria Harbour Seaplane Base进行的。 从2023年1月31日 16:00到2023年1月31日 21:00, 当地时间有效.

预报

  • 在星期二 16:00和21:00之间

    • 风: 风来自110°方向,速度为10 kt。
    • 能见度: 6 mi 或者更多
    • 乌云: 碎云在4.000 ft的高度 和 乌云密布在8.000 ft的高度.

白天

今天,太阳从07:41升起,在17:10降落。 这适用于Stuart Island Airpark,世界夏令时可能有所不同。 当地时间与世界标准时间之间的时差为-8 小时。 当前,没有夏令时有效。

我们和第三方通过cookies跟踪您在我们网站上的互联网行为。如果你继续,我们认为你同意我们的饼干政策